Time;durP1;ratioP1;P1;durP2;ratioP2;P2;SDS_P1;SDS_P2;PMS_P1;PMS_P2;Temp;Humidity;BMP_temperature;BMP_pressure;BME280_temperature;BME280_humidity;BME280_pressure;Samples;Min_cycle;Max_cycle;Signal;HPM_P1;HPM_P2
2023/10/18 00:00:57;;;;;;;10.65;8.93;;;;;;;;;;5096607;28;20063;-58
2023/10/18 00:03:23;;;;;;;14.35;9.77;;;;;;;;;;5096547;28;20024;-58
2023/10/18 00:05:49;;;;;;;12.68;11.07;;;;;;;;;;5096984;28;20016;-58
2023/10/18 00:08:17;;;;;;;11.35;8.95;;;;;;;;;;5096091;28;20054;-58
2023/10/18 00:10:43;;;;;;;11.10;9.43;;;;;;;;;;5096873;28;20476;-58
2023/10/18 00:13:10;;;;;;;14.07;10.18;;;;;;;;;;5096606;28;20110;-58
2023/10/18 00:15:36;;;;;;;13.32;8.23;;;;;;;;;;5097030;28;20028;-58
2023/10/18 00:18:02;;;;;;;13.18;9.82;;;;;;;;;;5096102;28;20032;-58
2023/10/18 00:20:28;;;;;;;13.60;10.50;;;;;;;;;;5096138;28;20113;-58
2023/10/18 00:22:57;;;;;;;11.25;10.10;;;;;;;;;;5096145;28;20486;-58
2023/10/18 00:25:23;;;;;;;15.98;10.10;;;;;;;;;;5095469;28;20020;-58
2023/10/18 00:27:49;;;;;;;11.57;8.93;;;;;;;;;;5095963;28;20028;-58
2023/10/18 00:30:18;;;;;;;12.52;10.20;;;;;;;;;;5095975;28;20450;-58
2023/10/18 00:32:44;;;;;;;10.45;9.40;;;;;;;;;;5095933;28;20034;-58
2023/10/18 00:35:18;;;;;;;11.52;9.20;;;;;;;;;;5095914;28;20035;-58
2023/10/18 00:37:44;;;;;;;14.80;10.18;;;;;;;;;;5096174;28;20051;-58
2023/10/18 00:40:56;;;;;;;11.35;8.73;;;;;;;;;;5095792;28;20024;-58
2023/10/18 00:43:04;;;;;;;16.33;10.30;;;;;;;;;;5084997;28;20385;-58
2023/10/18 00:45:31;;;;;;;15.52;10.23;;;;;;;;;;5095775;28;20114;-58
2023/10/18 00:47:58;;;;;;;10.60;9.50;;;;;;;;;;5095888;28;20040;-58
2023/10/18 00:50:31;;;;;;;11.55;9.20;;;;;;;;;;5096082;28;20461;-58
2023/10/18 00:52:57;;;;;;;11.40;9.55;;;;;;;;;;5096106;28;20028;-58
2023/10/18 00:55:23;;;;;;;10.95;9.80;;;;;;;;;;5095184;28;20027;-58
2023/10/18 00:57:49;;;;;;;12.43;11.07;;;;;;;;;;5095305;28;20484;-58
2023/10/18 01:00:19;;;;;;;14.05;10.48;;;;;;;;;;5095970;28;20052;-58
2023/10/18 01:02:48;;;;;;;15.47;12.60;;;;;;;;;;5095330;28;20027;-58
2023/10/18 01:05:15;;;;;;;12.80;11.57;;;;;;;;;;5095271;28;20032;-58
2023/10/18 01:07:41;;;;;;;13.90;12.30;;;;;;;;;;5095273;28;20070;-58
2023/10/18 01:10:09;;;;;;;14.20;11.85;;;;;;;;;;5095990;28;20020;-58
2023/10/18 01:12:35;;;;;;;15.63;12.20;;;;;;;;;;5095484;28;20040;-58
2023/10/18 01:15:06;;;;;;;15.10;12.40;;;;;;;;;;5095321;28;20020;-58
2023/10/18 01:17:34;;;;;;;16.30;11.88;;;;;;;;;;5095809;28;20036;-58
2023/10/18 01:20:00;;;;;;;17.40;13.43;;;;;;;;;;5095290;28;20056;-59
2023/10/18 01:22:26;;;;;;;13.45;12.05;;;;;;;;;;5094931;28;20195;-58
2023/10/18 01:24:52;;;;;;;15.07;13.07;;;;;;;;;;5094577;28;20101;-58
2023/10/18 01:27:18;;;;;;;13.82;11.05;;;;;;;;;;5094577;28;20470;-58
2023/10/18 01:29:44;;;;;;;16.83;12.68;;;;;;;;;;5095634;28;20077;-58
2023/10/18 01:32:10;;;;;;;14.55;12.02;;;;;;;;;;5094479;28;20107;-58
2023/10/18 01:34:37;;;;;;;13.90;12.38;;;;;;;;;;5094749;28;20032;-58
2023/10/18 01:37:03;;;;;;;16.65;12.20;;;;;;;;;;5093669;28;20504;-58
2023/10/18 01:39:29;;;;;;;12.82;11.52;;;;;;;;;;5094390;28;20370;-58
2023/10/18 01:41:55;;;;;;;13.63;11.90;;;;;;;;;;5094607;28;20028;-58
2023/10/18 01:44:28;;;;;;;14.15;11.80;;;;;;;;;;5095301;28;20051;-58
2023/10/18 01:46:55;;;;;;;14.45;10.88;;;;;;;;;;5095031;28;20450;-58
2023/10/18 01:49:25;;;;;;;14.10;11.52;;;;;;;;;;5094755;28;20036;-58
2023/10/18 01:51:52;;;;;;;14.00;11.07;;;;;;;;;;5094126;28;20454;-58
2023/10/18 01:54:19;;;;;;;12.70;11.35;;;;;;;;;;5094884;28;20106;-58
2023/10/18 01:56:46;;;;;;;13.70;11.73;;;;;;;;;;5094509;28;20027;-58
2023/10/18 01:59:18;;;;;;;11.82;10.25;;;;;;;;;;5094746;28;20024;-58
2023/10/18 02:01:53;;;;;;;17.30;11.30;;;;;;;;;;5094535;28;20371;-58
2023/10/18 02:04:31;;;;;;;14.63;12.18;;;;;;;;;;5094926;28;20335;-58
2023/10/18 02:06:59;;;;;;;13.50;9.98;;;;;;;;;;5094077;28;20028;-58
2023/10/18 02:09:35;;;;;;;12.70;10.93;;;;;;;;;;5094635;28;20055;-58
2023/10/18 02:12:03;;;;;;;17.33;12.13;;;;;;;;;;5094445;28;20029;-58
2023/10/18 02:14:33;;;;;;;13.43;11.73;;;;;;;;;;5094011;28;20085;-58
2023/10/18 02:16:59;;;;;;;13.00;11.30;;;;;;;;;;5094445;28;20036;-58
2023/10/18 02:19:26;;;;;;;15.27;12.35;;;;;;;;;;5094722;28;20032;-58
2023/10/18 02:21:54;;;;;;;15.27;11.45;;;;;;;;;;5093930;28;20376;-58
2023/10/18 02:24:20;;;;;;;15.95;12.70;;;;;;;;;;5093693;28;20365;-58
2023/10/18 02:26:56;;;;;;;15.13;12.07;;;;;;;;;;5093780;28;20115;-58
2023/10/18 02:29:22;;;;;;;16.15;12.07;;;;;;;;;;5094392;28;20085;-58
2023/10/18 02:31:50;;;;;;;14.77;12.50;;;;;;;;;;5093748;28;20035;-58
2023/10/18 02:34:16;;;;;;;16.23;12.70;;;;;;;;;;5093971;28;20030;-58
2023/10/18 02:36:49;;;;;;;12.55;11.25;;;;;;;;;;5093599;28;20522;-58
2023/10/18 02:39:23;;;;;;;15.25;11.73;;;;;;;;;;5093954;28;20032;-58
2023/10/18 02:41:49;;;;;;;14.60;11.70;;;;;;;;;;5094240;28;20382;-58
2023/10/18 02:44:24;;;;;;;12.95;11.18;;;;;;;;;;5093888;28;20039;-58
2023/10/18 02:47:06;;;;;;;14.98;12.65;;;;;;;;;;5094114;28;20347;-58
2023/10/18 02:49:34;;;;;;;14.13;12.68;;;;;;;;;;5093944;28;20039;-58
2023/10/18 02:52:02;;;;;;;14.20;12.65;;;;;;;;;;5093464;28;20030;-58
2023/10/18 02:54:32;;;;;;;13.75;11.45;;;;;;;;;;5094080;28;20419;-58
2023/10/18 02:56:59;;;;;;;22.27;13.15;;;;;;;;;;5093436;28;20025;-58
2023/10/18 02:59:27;;;;;;;13.98;12.05;;;;;;;;;;5093526;28;20111;-58
2023/10/18 03:01:57;;;;;;;18.20;12.77;;;;;;;;;;5093396;28;20028;-58
2023/10/18 03:04:26;;;;;;;14.73;13.10;;;;;;;;;;5093744;28;20446;-58
2023/10/18 03:06:52;;;;;;;13.23;11.50;;;;;;;;;;5093934;28;20032;-58
2023/10/18 03:09:38;;;;;;;17.25;12.73;;;;;;;;;;5093698;28;20474;-58
2023/10/18 03:12:06;;;;;;;12.98;11.60;;;;;;;;;;5093952;28;20043;-58
2023/10/18 03:14:39;;;;;;;15.55;13.73;;;;;;;;;;5093748;28;20446;-58
2023/10/18 03:19:45;;;;;;;14.07;12.00;;;;;;;;;;5093644;28;20028;-58
2023/10/18 03:22:11;;;;;;;12.85;11.55;;;;;;;;;;5093731;28;20038;-58
2023/10/18 03:24:37;;;;;;;14.63;11.52;;;;;;;;;;5093281;28;20153;-58
2023/10/18 03:27:11;;;;;;;14.48;12.60;;;;;;;;;;5093285;28;20024;-58
2023/10/18 03:29:37;;;;;;;14.38;12.93;;;;;;;;;;5093859;28;20028;-58
2023/10/18 03:32:06;;;;;;;15.85;13.55;;;;;;;;;;5093424;28;20031;-58
2023/10/18 03:34:35;;;;;;;14.18;12.13;;;;;;;;;;5093225;28;20024;-58
2023/10/18 03:37:04;;;;;;;13.93;12.48;;;;;;;;;;5093226;28;20048;-58
2023/10/18 03:39:30;;;;;;;23.23;13.20;;;;;;;;;;5093841;28;20365;-58
2023/10/18 03:42:01;;;;;;;13.50;12.05;;;;;;;;;;5093371;28;20373;-58
2023/10/18 03:44:27;;;;;;;15.43;13.32;;;;;;;;;;5093945;28;20119;-58
2023/10/18 03:47:03;;;;;;;14.20;12.65;;;;;;;;;;5093576;28;20081;-58
2023/10/18 03:51:57;;;;;;;12.57;10.77;;;;;;;;;;5093244;28;20480;-58
2023/10/18 03:54:23;;;;;;;15.05;12.75;;;;;;;;;;5093041;28;20028;-58
2023/10/18 03:56:53;;;;;;;13.77;11.75;;;;;;;;;;5093429;28;20024;-58
2023/10/18 03:59:23;;;;;;;14.80;12.65;;;;;;;;;;5093220;28;20469;-58
2023/10/18 04:02:35;;;;;;;13.82;12.40;;;;;;;;;;5095321;28;20027;-58
2023/10/18 04:04:36;;;;;;;14.55;12.15;;;;;;;;;;5088630;28;20032;-58
2023/10/18 04:07:12;;;;;;;18.75;13.90;;;;;;;;;;5096535;28;20108;-58
2023/10/18 04:09:40;;;;;;;14.30;12.40;;;;;;;;;;5096526;28;20492;-58
2023/10/18 04:12:07;;;;;;;14.02;12.57;;;;;;;;;;5097010;28;20020;-59
2023/10/18 04:14:33;;;;;;;14.57;12.32;;;;;;;;;;5096675;28;20016;-58
2023/10/18 04:17:03;;;;;;;13.70;12.30;;;;;;;;;;5095871;28;20024;-58
2023/10/18 04:19:29;;;;;;;15.57;12.60;;;;;;;;;;5096276;28;20020;-58
2023/10/18 04:21:55;;;;;;;14.90;12.25;;;;;;;;;;5096455;28;20027;-58
2023/10/18 04:24:20;;;;;;;15.73;13.30;;;;;;;;;;5096183;28;20457;-58
2023/10/18 04:26:52;;;;;;;16.02;12.13;;;;;;;;;;5096648;28;20085;-58
2023/10/18 04:29:26;;;;;;;15.10;13.13;;;;;;;;;;5096604;28;20028;-58
2023/10/18 04:31:56;;;;;;;14.52;12.65;;;;;;;;;;5096867;28;20024;-58
2023/10/18 04:34:22;;;;;;;15.18;13.60;;;;;;;;;;5096330;28;20369;-58
2023/10/18 04:36:51;;;;;;;14.45;12.93;;;;;;;;;;5096273;28;20358;-58
2023/10/18 04:39:20;;;;;;;15.52;14.00;;;;;;;;;;5095876;28;20101;-58
2023/10/18 04:41:45;;;;;;;17.13;13.32;;;;;;;;;;5095912;28;20059;-58
2023/10/18 04:44:18;;;;;;;16.35;13.43;;;;;;;;;;5095892;28;20027;-57
2023/10/18 04:46:47;;;;;;;14.43;12.95;;;;;;;;;;5096584;28;20374;-58
2023/10/18 04:54:11;;;;;;;16.80;13.57;;;;;;;;;;5095915;28;20378;-58
2023/10/18 04:56:38;;;;;;;14.93;13.40;;;;;;;;;;5096191;28;20028;-58
2023/10/18 04:59:29;;;;;;;15.15;13.45;;;;;;;;;;5095779;28;20028;-58
2023/10/18 05:04:20;;;;;;;14.38;12.90;;;;;;;;;;5094950;28;20085;-58
2023/10/18 05:06:54;;;;;;;21.35;17.00;;;;;;;;;;5094915;28;20032;-58
2023/10/18 05:09:30;;;;;;;17.52;15.10;;;;;;;;;;5095600;28;20031;-58
2023/10/18 05:12:16;;;;;;;19.45;14.95;;;;;;;;;;5095960;28;20024;-57
2023/10/18 05:14:43;;;;;;;17.92;14.95;;;;;;;;;;5095697;28;20373;-57
2023/10/18 05:17:17;;;;;;;20.10;13.98;;;;;;;;;;5095849;28;20063;-58
2023/10/18 05:19:44;;;;;;;15.38;13.65;;;;;;;;;;5095189;28;20028;-58
2023/10/18 05:22:16;;;;;;;19.73;12.98;;;;;;;;;;5095040;28;20035;-58
2023/10/18 05:24:42;;;;;;;14.50;12.98;;;;;;;;;;5095294;28;20028;-58
2023/10/18 05:27:19;;;;;;;17.42;12.85;;;;;;;;;;5094933;28;20046;-58
2023/10/18 05:29:58;;;;;;;14.13;12.23;;;;;;;;;;5095582;28;20350;-58
2023/10/18 05:35:03;;;;;;;15.15;13.35;;;;;;;;;;5094843;28;20032;-58
2023/10/18 05:37:33;;;;;;;18.85;13.57;;;;;;;;;;5094972;28;20105;-58
2023/10/18 05:40:45;;;;;;;13.40;11.95;;;;;;;;;;5094787;28;20050;-58
2023/10/18 05:43:03;;;;;;;18.08;12.93;;;;;;;;;;5095335;28;20468;-57
2023/10/18 05:45:31;;;;;;;18.60;13.88;;;;;;;;;;5095134;28;20024;-57
2023/10/18 05:47:58;;;;;;;15.60;13.25;;;;;;;;;;5094478;28;20028;-57
2023/10/18 05:50:24;;;;;;;15.85;13.45;;;;;;;;;;5094856;28;20381;-56
2023/10/18 05:52:57;;;;;;;14.40;12.40;;;;;;;;;;5094456;28;20355;-58
2023/10/18 05:55:24;;;;;;;16.67;12.38;;;;;;;;;;5095025;28;20024;-57
2023/10/18 05:57:50;;;;;;;15.32;12.77;;;;;;;;;;5095028;28;20036;-56
2023/10/18 06:00:17;;;;;;;22.00;14.57;;;;;;;;;;5093112;28;20115;-57
2023/10/18 06:02:45;;;;;;;15.27;13.23;;;;;;;;;;5094170;28;20032;-59
2023/10/18 06:05:11;;;;;;;17.30;13.85;;;;;;;;;;5094224;28;20035;-58
2023/10/18 06:07:37;;;;;;;16.30;14.15;;;;;;;;;;5094177;28;20024;-59
2023/10/18 06:10:13;;;;;;;15.20;13.48;;;;;;;;;;5094713;28;20028;-59
2023/10/18 06:12:41;;;;;;;21.52;15.15;;;;;;;;;;5094628;28;20032;-59
2023/10/18 06:15:10;;;;;;;17.15;14.90;;;;;;;;;;5094602;28;20032;-59
2023/10/18 06:20:27;;;;;;;16.25;13.30;;;;;;;;;;5093972;28;20032;-57
2023/10/18 06:23:09;;;;;;;20.85;14.48;;;;;;;;;;5094785;28;20057;-57
2023/10/18 06:25:44;;;;;;;20.58;15.27;;;;;;;;;;5094544;28;20103;-57
2023/10/18 06:28:11;;;;;;;16.58;14.02;;;;;;;;;;5094149;28;20064;-57
2023/10/18 06:30:40;;;;;;;15.98;13.95;;;;;;;;;;5094620;28;20119;-56
2023/10/18 06:33:07;;;;;;;16.48;14.48;;;;;;;;;;5093502;28;20473;-59
2023/10/18 06:35:42;;;;;;;19.27;12.93;;;;;;;;;;5093679;28;20032;-59
2023/10/18 06:38:09;;;;;;;18.25;15.27;;;;;;;;;;5094507;28;20048;-57
2023/10/18 06:40:49;;;;;;;15.55;13.82;;;;;;;;;;5093789;28;20020;-57
2023/10/18 06:43:16;;;;;;;17.55;14.38;;;;;;;;;;5094057;28;20039;-57
2023/10/18 06:45:42;;;;;;;17.88;15.23;;;;;;;;;;5093621;28;20032;-59
2023/10/18 06:48:08;;;;;;;15.60;14.00;;;;;;;;;;5093623;28;20378;-60
2023/10/18 06:50:35;;;;;;;17.17;14.07;;;;;;;;;;5093730;28;20024;-59
2023/10/18 06:53:06;;;;;;;18.75;15.40;;;;;;;;;;5093624;28;20066;-59
2023/10/18 06:58:41;;;;;;;16.73;13.30;;;;;;;;;;5093579;28;19959;-57
2023/10/18 07:01:13;;;;;;;20.40;15.38;;;;;;;;;;5093398;28;20054;-57
2023/10/18 07:03:42;;;;;;;18.60;14.10;;;;;;;;;;5093998;28;20024;-56
2023/10/18 07:06:24;;;;;;;17.90;13.50;;;;;;;;;;5093490;28;20055;-57
2023/10/18 07:08:50;;;;;;;17.23;14.07;;;;;;;;;;5094111;28;20028;-57
2023/10/18 07:11:16;;;;;;;17.63;14.75;;;;;;;;;;5094308;28;20035;-57
2023/10/18 07:13:46;;;;;;;19.30;15.57;;;;;;;;;;5093478;28;20032;-57
2023/10/18 07:16:15;;;;;;;16.70;14.73;;;;;;;;;;5093879;28;20024;-57
2023/10/18 07:18:44;;;;;;;20.05;15.50;;;;;;;;;;5093299;28;20044;-59
2023/10/18 07:21:10;;;;;;;21.15;16.20;;;;;;;;;;5094168;28;20043;-59
2023/10/18 07:23:37;;;;;;;15.60;13.95;;;;;;;;;;5093867;28;20055;-58
2023/10/18 07:26:07;;;;;;;17.25;14.27;;;;;;;;;;5093815;28;20020;-57
2023/10/18 07:28:35;;;;;;;20.10;14.52;;;;;;;;;;5093531;28;20136;-57
2023/10/18 07:31:01;;;;;;;16.60;14.88;;;;;;;;;;5093369;28;20032;-57
2023/10/18 07:33:28;;;;;;;16.45;14.45;;;;;;;;;;5093166;28;20077;-57
2023/10/18 07:35:55;;;;;;;17.80;13.52;;;;;;;;;;5093961;28;20028;-57
2023/10/18 07:38:29;;;;;;;15.27;13.23;;;;;;;;;;5097781;28;20032;-60
2023/10/18 07:40:57;;;;;;;16.65;13.93;;;;;;;;;;5097116;28;20024;-57
2023/10/18 07:43:25;;;;;;;16.80;13.95;;;;;;;;;;5097792;28;20039;-57
2023/10/18 07:45:55;;;;;;;16.05;13.57;;;;;;;;;;5096936;28;20454;-57
2023/10/18 07:48:22;;;;;;;16.27;14.38;;;;;;;;;;5096908;28;20039;-57
2023/10/18 07:50:51;;;;;;;13.88;12.48;;;;;;;;;;5097455;28;20104;-57
2023/10/18 07:53:24;;;;;;;12.90;11.52;;;;;;;;;;5096664;28;20489;-57
2023/10/18 07:55:56;;;;;;;18.42;14.27;;;;;;;;;;5097621;28;20374;-57
2023/10/18 07:58:25;;;;;;;16.20;12.63;;;;;;;;;;5097037;28;20085;-57
2023/10/18 08:03:30;;;;;;;12.85;11.23;;;;;;;;;;5096597;28;20034;-57
2023/10/18 08:05:56;;;;;;;12.70;11.45;;;;;;;;;;5096530;28;20127;-57
2023/10/18 08:08:25;;;;;;;12.82;10.93;;;;;;;;;;5096525;28;20059;-57
2023/10/18 08:10:55;;;;;;;15.35;11.57;;;;;;;;;;5096854;28;20026;-57
2023/10/18 08:13:31;;;;;;;13.70;11.30;;;;;;;;;;5096387;28;20432;-57
2023/10/18 08:16:01;;;;;;;12.13;10.05;;;;;;;;;;5096980;28;20051;-57
2023/10/18 08:18:46;;;;;;;10.77;9.48;;;;;;;;;;5096845;28;20035;-57
2023/10/18 08:23:57;;;;;;;12.40;11.10;;;;;;;;;;5096597;28;20381;-57
2023/10/18 08:26:27;;;;;;;13.27;11.90;;;;;;;;;;5096142;28;20073;-57
2023/10/18 08:28:54;;;;;;;14.55;12.38;;;;;;;;;;5096187;28;20027;-57
2023/10/18 08:31:32;;;;;;;12.77;10.52;;;;;;;;;;5096071;28;20035;-57
2023/10/18 08:34:05;;;;;;;11.38;10.18;;;;;;;;;;5096071;28;20024;-57
2023/10/18 08:36:32;;;;;;;13.95;12.55;;;;;;;;;;5096374;28;20052;-57
2023/10/18 08:38:58;;;;;;;19.52;13.25;;;;;;;;;;5095900;28;20040;-57
2023/10/18 08:41:25;;;;;;;15.60;12.38;;;;;;;;;;5096230;28;20017;-57
2023/10/18 08:43:59;;;;;;;13.18;11.65;;;;;;;;;;5095857;28;20058;-57
2023/10/18 08:46:26;;;;;;;13.02;11.65;;;;;;;;;;5095568;28;20060;-57
2023/10/18 08:48:56;;;;;;;16.40;11.73;;;;;;;;;;5096237;28;20153;-57
2023/10/18 08:51:26;;;;;;;12.18;10.93;;;;;;;;;;5096610;28;20165;-57
2023/10/18 08:53:55;;;;;;;13.32;11.38;;;;;;;;;;5095674;28;20021;-57
2023/10/18 08:56:26;;;;;;;14.68;10.88;;;;;;;;;;5095623;28;20020;-57
2023/10/18 08:58:56;;;;;;;14.27;12.27;;;;;;;;;;5096142;28;20115;-57
2023/10/18 09:01:22;;;;;;;;;;;;;;;;;;5096561;28;20036;-57
2023/10/18 09:03:49;;;;;;;11.80;10.32;;;;;;;;;;5095660;28;19904;-57
2023/10/18 09:06:31;;;;;;;11.98;10.77;;;;;;;;;;5095152;28;20465;-57
2023/10/18 09:09:05;;;;;;;13.70;12.30;;;;;;;;;;5095672;28;20032;-57
2023/10/18 09:11:31;;;;;;;13.07;11.73;;;;;;;;;;5096228;28;20054;-57
2023/10/18 09:14:12;;;;;;;14.20;12.68;;;;;;;;;;5095184;28;20092;-57
2023/10/18 09:16:42;;;;;;;12.27;10.80;;;;;;;;;;5095775;28;20079;-57
2023/10/18 09:19:08;;;;;;;13.15;11.82;;;;;;;;;;5094704;28;20454;-57
2023/10/18 09:24:11;;;;;;;13.70;12.07;;;;;;;;;;5095117;28;20028;-57
2023/10/18 09:26:40;;;;;;;13.25;11.77;;;;;;;;;;5095622;28;20032;-57
2023/10/18 09:29:08;;;;;;;10.95;9.63;;;;;;;;;;5095446;28;20116;-58
2023/10/18 09:31:34;;;;;;;12.35;9.93;;;;;;;;;;5095641;28;20039;-57
2023/10/18 09:34:07;;;;;;;11.27;9.95;;;;;;;;;;5094736;28;20028;-57
2023/10/18 09:36:38;;;;;;;12.23;10.48;;;;;;;;;;5095005;28;20123;-57
2023/10/18 09:39:13;;;;;;;11.48;10.32;;;;;;;;;;5095255;28;20079;-57
2023/10/18 09:41:39;;;;;;;11.85;10.73;;;;;;;;;;5094772;28;20024;-57
2023/10/18 09:44:06;;;;;;;9.80;8.82;;;;;;;;;;5094680;28;20035;-57
2023/10/18 09:46:33;;;;;;;11.43;10.18;;;;;;;;;;5094576;28;20121;-57
2023/10/18 09:49:00;;;;;;;11.63;10.43;;;;;;;;;;5095016;28;20051;-57
2023/10/18 09:51:26;;;;;;;11.07;9.95;;;;;;;;;;5095078;28;20377;-57
2023/10/18 09:53:53;;;;;;;11.88;10.68;;;;;;;;;;5095003;28;20030;-58
2023/10/18 09:56:24;;;;;;;11.02;9.93;;;;;;;;;;5094441;28;20028;-58
2023/10/18 09:58:51;;;;;;;10.85;9.80;;;;;;;;;;5094394;28;20040;-57
2023/10/18 10:01:25;;;;;;;11.30;9.43;;;;;;;;;;5094934;28;20036;-58
2023/10/18 10:03:56;;;;;;;9.45;8.40;;;;;;;;;;5095340;28;20088;-57
2023/10/18 10:06:26;;;;;;;11.55;10.00;;;;;;;;;;5094912;28;20028;-57
2023/10/18 10:09:11;;;;;;;11.55;10.10;;;;;;;;;;5094234;28;20038;-57
2023/10/18 10:11:43;;;;;;;10.13;8.63;;;;;;;;;;5094724;28;20028;-57
2023/10/18 10:14:10;;;;;;;10.25;8.98;;;;;;;;;;5094647;28;20020;-57
2023/10/18 10:16:37;;;;;;;11.02;9.02;;;;;;;;;;5094043;28;20024;-57
2023/10/18 10:19:09;;;;;;;13.02;10.13;;;;;;;;;;5094418;28;20115;-57
2023/10/18 10:21:36;;;;;;;10.60;9.27;;;;;;;;;;5094099;28;20024;-57
2023/10/18 10:24:14;;;;;;;11.15;8.88;;;;;;;;;;5094025;28;20100;-57
2023/10/18 10:26:48;;;;;;;11.07;8.38;;;;;;;;;;5093985;28;20107;-57
2023/10/18 10:31:59;;;;;;;9.48;8.38;;;;;;;;;;5093989;28;20052;-57
2023/10/18 10:34:37;;;;;;;10.27;8.82;;;;;;;;;;5094932;28;20078;-57
2023/10/18 10:37:11;;;;;;;7.63;6.93;;;;;;;;;;5093567;28;20493;-59
2023/10/18 10:39:44;;;;;;;7.55;6.85;;;;;;;;;;5094354;28;20047;-57
2023/10/18 10:42:28;;;;;;;7.40;6.70;;;;;;;;;;5094314;28;20417;-57
2023/10/18 10:45:23;;;;;;;7.70;6.80;;;;;;;;;;5094568;28;20035;-57
2023/10/18 10:47:52;;;;;;;9.05;7.68;;;;;;;;;;5093730;28;20024;-57
2023/10/18 10:50:50;;;;;;;7.22;6.47;;;;;;;;;;5093755;28;20027;-57
2023/10/18 10:53:45;;;;;;;7.07;5.63;;;;;;;;;;5094212;28;20094;-57
2023/10/18 10:56:32;;;;;;;6.47;5.47;;;;;;;;;;5094512;28;20020;-57
2023/10/18 10:59:43;;;;;;;10.55;5.80;;;;;;;;;;5094140;28;20036;-58
2023/10/18 11:01:57;;;;;;;6.97;5.43;;;;;;;;;;5082426;28;20040;-58
2023/10/18 11:04:28;;;;;;;6.43;5.75;;;;;;;;;;5094049;28;20359;-58
2023/10/18 11:07:03;;;;;;;5.97;5.38;;;;;;;;;;5093340;28;20036;-58
2023/10/18 11:09:33;;;;;;;6.82;4.90;;;;;;;;;;5094262;28;20032;-58
2023/10/18 11:12:10;;;;;;;9.23;4.95;;;;;;;;;;5097873;28;20369;-58
2023/10/18 11:14:36;;;;;;;5.13;4.57;;;;;;;;;;5098130;28;20472;-58
2023/10/18 11:17:17;;;;;;;5.72;5.05;;;;;;;;;;5097440;28;20032;-58
2023/10/18 11:19:43;;;;;;;6.15;4.88;;;;;;;;;;5097499;28;20081;-58
2023/10/18 11:22:19;;;;;;;6.38;5.45;;;;;;;;;;5097418;28;20112;-58
2023/10/18 11:24:45;;;;;;;6.22;5.18;;;;;;;;;;5097089;28;20509;-58
2023/10/18 11:27:11;;;;;;;6.07;5.10;;;;;;;;;;5097799;28;20047;-58
2023/10/18 11:29:41;;;;;;;6.07;5.32;;;;;;;;;;5097838;28;20024;-58
2023/10/18 11:32:09;;;;;;;5.22;4.68;;;;;;;;;;5097575;28;20028;-58
2023/10/18 11:34:45;;;;;;;6.50;5.45;;;;;;;;;;5097184;28;20024;-58
2023/10/18 11:37:14;;;;;;;5.13;4.35;;;;;;;;;;5097071;28;20048;-58
2023/10/18 11:39:43;;;;;;;4.10;3.47;;;;;;;;;;5097748;28;20115;-58
2023/10/18 11:42:10;;;;;;;5.38;4.45;;;;;;;;;;5097062;28;20061;-58
2023/10/18 11:44:39;;;;;;;4.43;3.63;;;;;;;;;;5097265;28;20035;-58
2023/10/18 11:47:11;;;;;;;6.18;4.90;;;;;;;;;;5097735;28;20035;-58
2023/10/18 11:49:38;;;;;;;5.82;4.38;;;;;;;;;;5097060;28;20081;-58
2023/10/18 11:52:05;;;;;;;5.40;4.70;;;;;;;;;;5097180;28;20055;-58
2023/10/18 11:54:32;;;;;;;4.82;3.75;;;;;;;;;;5097598;28;20354;-58
2023/10/18 11:56:59;;;;;;;4.63;3.35;;;;;;;;;;5097240;28;20024;-58
2023/10/18 11:59:25;;;;;;;4.00;3.08;;;;;;;;;;5097270;28;20355;-58
2023/10/18 12:02:06;;;;;;;5.85;3.67;;;;;;;;;;5096697;28;20036;-58
2023/10/18 12:04:39;;;;;;;5.35;3.10;;;;;;;;;;5097183;28;20361;-58
2023/10/18 12:07:08;;;;;;;5.47;3.78;;;;;;;;;;5097080;28;20374;-58
2023/10/18 12:09:42;;;;;;;4.10;3.22;;;;;;;;;;5097147;28;20362;-58
2023/10/18 12:12:12;;;;;;;4.32;3.25;;;;;;;;;;5096311;28;20025;-58
2023/10/18 12:14:38;;;;;;;4.90;3.63;;;;;;;;;;5096442;28;20028;-58
2023/10/18 12:17:04;;;;;;;5.07;3.60;;;;;;;;;;5096520;28;20470;-58
2023/10/18 12:19:31;;;;;;;5.78;3.53;;;;;;;;;;5096347;28;20114;-58
2023/10/18 12:21:59;;;;;;;4.32;3.40;;;;;;;;;;5096182;28;20035;-58
2023/10/18 12:24:27;;;;;;;4.22;3.83;;;;;;;;;;5096240;28;20377;-58
2023/10/18 12:26:56;;;;;;;5.60;3.90;;;;;;;;;;5096160;28;20085;-58
2023/10/18 12:29:31;;;;;;;11.80;8.80;;;;;;;;;;5095930;28;20020;-58
2023/10/18 12:32:19;;;;;;;6.60;5.57;;;;;;;;;;5096912;28;20035;-58
2023/10/18 12:34:45;;;;;;;5.05;4.30;;;;;;;;;;5095963;28;20081;-58
2023/10/18 12:37:13;;;;;;;9.02;4.05;;;;;;;;;;5096344;28;20052;-58
2023/10/18 12:39:46;;;;;;;6.00;4.38;;;;;;;;;;5096209;28;20032;-58
2023/10/18 12:42:12;;;;;;;5.03;4.53;;;;;;;;;;5095960;28;20334;-58
2023/10/18 12:44:39;;;;;;;4.70;4.20;;;;;;;;;;5096429;28;20031;-58
2023/10/18 12:47:09;;;;;;;4.50;3.33;;;;;;;;;;5096430;28;20031;-58
2023/10/18 12:49:37;;;;;;;4.57;3.47;;;;;;;;;;5096018;28;20482;-58
2023/10/18 12:52:04;;;;;;;4.38;3.08;;;;;;;;;;5095591;28;20485;-58
2023/10/18 12:54:33;;;;;;;4.85;3.72;;;;;;;;;;5095650;28;20077;-58
2023/10/18 12:57:17;;;;;;;3.65;2.55;;;;;;;;;;5096033;28;20107;-58
2023/10/18 13:00:43;;;;;;;8.65;3.20;;;;;;;;;;5096064;28;20039;-58
2023/10/18 13:03:14;;;;;;;4.50;3.03;;;;;;;;;;5081742;28;20039;-58
2023/10/18 13:05:46;;;;;;;6.40;3.60;;;;;;;;;;5094958;28;20035;-58
2023/10/18 13:08:30;;;;;;;3.85;2.95;;;;;;;;;;5095588;28;20024;-58
2023/10/18 13:13:31;;;;;;;4.05;3.03;;;;;;;;;;5095299;28;20475;-58
2023/10/18 13:15:58;;;;;;;4.50;3.28;;;;;;;;;;5095126;28;20024;-58
2023/10/18 13:18:25;;;;;;;4.22;3.03;;;;;;;;;;5095509;28;20028;-58
2023/10/18 13:20:55;;;;;;;6.68;3.35;;;;;;;;;;5095748;28;20024;-58
2023/10/18 13:23:22;;;;;;;4.50;3.37;;;;;;;;;;5094734;28;20478;-58
2023/10/18 13:25:54;;;;;;;3.88;3.05;;;;;;;;;;5094927;28;20416;-58
2023/10/18 13:28:47;;;;;;;4.78;3.40;;;;;;;;;;5095770;28;20024;-58
2023/10/18 13:31:22;;;;;;;4.68;3.78;;;;;;;;;;5094783;28;20023;-58
2023/10/18 13:33:52;;;;;;;4.93;4.00;;;;;;;;;;5095287;28;20031;-58
2023/10/18 13:36:21;;;;;;;4.75;3.78;;;;;;;;;;5094530;28;20044;-58
2023/10/18 13:38:49;;;;;;;4.47;3.40;;;;;;;;;;5095039;28;20024;-58
2023/10/18 13:41:15;;;;;;;5.32;4.22;;;;;;;;;;5095443;28;20025;-58
2023/10/18 13:43:44;;;;;;;5.15;4.45;;;;;;;;;;5095048;28;20453;-58
2023/10/18 13:46:18;;;;;;;4.20;3.70;;;;;;;;;;5094768;28;20412;-58
2023/10/18 13:48:44;;;;;;;4.68;3.70;;;;;;;;;;5095432;28;20444;-58
2023/10/18 13:51:13;;;;;;;5.10;4.15;;;;;;;;;;5094870;28;20024;-58
2023/10/18 13:53:39;;;;;;;5.32;4.65;;;;;;;;;;5094309;28;20043;-58
2023/10/18 13:56:06;;;;;;;7.05;4.65;;;;;;;;;;5095115;28;20036;-58
2023/10/18 13:58:35;;;;;;;5.72;4.88;;;;;;;;;;5094254;28;20024;-58
2023/10/18 14:01:05;;;;;;;5.38;4.88;;;;;;;;;;5094771;28;20425;-58
2023/10/18 14:03:32;;;;;;;8.20;6.90;;;;;;;;;;5094093;28;20012;-58
2023/10/18 14:05:59;;;;;;;6.40;5.57;;;;;;;;;;5094006;28;20013;-58
2023/10/18 14:08:25;;;;;;;5.88;4.80;;;;;;;;;;5093824;28;20094;-58
2023/10/18 14:10:54;;;;;;;6.80;6.07;;;;;;;;;;5094774;28;20315;-58
2023/10/18 14:13:22;;;;;;;7.15;5.70;;;;;;;;;;5094017;28;20020;-58
2023/10/18 14:15:49;;;;;;;7.80;7.00;;;;;;;;;;5094000;28;20023;-58
2023/10/18 14:18:15;;;;;;;8.45;6.75;;;;;;;;;;5093954;28;20028;-58
2023/10/18 14:20:50;;;;;;;6.15;5.55;;;;;;;;;;5094331;28;20032;-58
2023/10/18 14:23:19;;;;;;;8.15;6.00;;;;;;;;;;5094513;28;20027;-58
2023/10/18 14:25:46;;;;;;;6.95;6.25;;;;;;;;;;5093950;28;20085;-58
2023/10/18 14:28:12;;;;;;;8.48;6.82;;;;;;;;;;5093832;28;20035;-58
2023/10/18 14:30:39;;;;;;;9.05;6.82;;;;;;;;;;5094267;28;20077;-58
2023/10/18 14:33:05;;;;;;;7.40;6.22;;;;;;;;;;5093746;28;20116;-58
2023/10/18 14:35:31;;;;;;;10.32;5.88;;;;;;;;;;5093722;28;20028;-58
2023/10/18 14:38:06;;;;;;;8.20;6.35;;;;;;;;;;5093191;28;20040;-57
2023/10/18 14:40:34;;;;;;;6.75;5.78;;;;;;;;;;5093780;28;20032;-58
2023/10/18 14:43:00;;;;;;;7.38;5.97;;;;;;;;;;5093661;28;20454;-58
2023/10/18 14:45:32;;;;;;;7.57;6.75;;;;;;;;;;5093148;28;20519;-58
2023/10/18 14:47:58;;;;;;;5.70;5.15;;;;;;;;;;5094189;28;20036;-58
2023/10/18 14:50:26;;;;;;;7.72;5.53;;;;;;;;;;5093645;28;20459;-58
2023/10/18 14:52:52;;;;;;;7.78;6.85;;;;;;;;;;5093491;28;20058;-58
2023/10/18 14:55:18;;;;;;;7.00;5.70;;;;;;;;;;5093876;28;20031;-58
2023/10/18 14:57:44;;;;;;;7.65;5.53;;;;;;;;;;5094209;28;20069;-58
2023/10/18 15:00:19;;;;;;;6.88;6.10;;;;;;;;;;5094158;28;20030;-58
2023/10/18 15:02:48;;;;;;;6.85;6.13;;;;;;;;;;5093985;28;20036;-58
2023/10/18 15:05:15;;;;;;;7.68;5.72;;;;;;;;;;5093874;28;20525;-58
2023/10/18 15:07:40;;;;;;;8.50;7.55;;;;;;;;;;5093757;28;20119;-58
2023/10/18 15:10:07;;;;;;;10.60;7.40;;;;;;;;;;5093886;28;20051;-58
2023/10/18 15:12:33;;;;;;;6.63;5.63;;;;;;;;;;5093408;28;20486;-58
2023/10/18 15:14:59;;;;;;;10.23;7.38;;;;;;;;;;5093689;28;20081;-58
2023/10/18 15:17:26;;;;;;;7.30;6.35;;;;;;;;;;5093343;28;20044;-58